Time;durP1;ratioP1;P1;durP2;ratioP2;P2;SDS_P1;SDS_P2;PMS_P1;PMS_P2;Temp;Humidity;BMP_temperature;BMP_pressure;BME280_temperature;BME280_humidity;BME280_pressure;Samples;Min_cycle;Max_cycle;Signal;HPM_P1;HPM_P2
2020/12/08 00:02:17;;;;;;;31.60;21.67;;;5.00;72.50;;;;;;5025601;28;20400;-81
2020/12/08 00:04:43;;;;;;;27.73;19.97;;;5.00;72.40;;;;;;5024444;28;20026;-81
2020/12/08 00:07:09;;;;;;;29.37;20.30;;;4.90;72.40;;;;;;5038620;28;20120;-81
2020/12/08 00:09:35;;;;;;;25.80;18.80;;;5.00;72.60;;;;;;5027770;28;20029;-82
2020/12/08 00:12:01;;;;;;;27.23;18.57;;;4.90;72.40;;;;;;5021208;28;20025;-82
2020/12/08 00:14:27;;;;;;;27.37;17.13;;;4.90;72.40;;;;;;5026619;28;20037;-81
2020/12/08 00:16:53;;;;;;;20.33;14.03;;;4.90;72.40;;;;;;5023508;28;20022;-81
2020/12/08 00:19:19;;;;;;;21.53;15.67;;;4.90;72.30;;;;;;5027239;28;20070;-81
2020/12/08 00:21:45;;;;;;;24.10;15.47;;;4.90;72.30;;;;;;5025991;28;20030;-81
2020/12/08 00:24:15;;;;;;;21.90;15.33;;;4.90;72.30;;;;;;5024644;28;20121;-81
2020/12/08 00:26:42;;;;;;;35.60;19.67;;;4.90;72.30;;;;;;5028095;28;20387;-82
2020/12/08 00:29:08;;;;;;;25.43;17.37;;;4.90;72.60;;;;;;5029993;28;20487;-81
2020/12/08 00:31:35;;;;;;;29.60;20.37;;;4.90;72.60;;;;;;5027166;28;20032;-81
2020/12/08 00:34:01;;;;;;;28.07;18.87;;;4.90;72.40;;;;;;5025079;28;20073;-81
2020/12/08 00:36:27;;;;;;;25.67;18.53;;;5.00;72.60;;;;;;5021733;28;20040;-81
2020/12/08 00:38:53;;;;;;;28.47;18.23;;;5.00;72.50;;;;;;5023495;28;20025;-81
2020/12/08 00:41:20;;;;;;;27.67;18.37;;;5.10;72.60;;;;;;5027206;28;20106;-82
2020/12/08 00:43:47;;;;;;;27.90;18.50;;;5.10;72.20;;;;;;5030086;28;20064;-81
2020/12/08 00:46:14;;;;;;;25.43;17.93;;;5.10;72.30;;;;;;5025016;28;20065;-81
2020/12/08 00:48:40;;;;;;;31.00;21.73;;;5.20;72.40;;;;;;5029655;28;20063;-81
2020/12/08 00:51:06;;;;;;;29.20;19.47;;;5.10;71.70;;;;;;5018278;28;20022;-81
2020/12/08 00:53:32;;;;;;;29.37;20.23;;;5.10;72.10;;;;;;5019449;28;20022;-81
2020/12/08 00:55:59;;;;;;;27.30;19.70;;;5.10;71.90;;;;;;5028156;28;20048;-81
2020/12/08 00:58:25;;;;;;;29.40;21.23;;;5.20;72.20;;;;;;5023921;28;20021;-81
2020/12/08 01:00:51;;;;;;;31.77;21.37;;;5.20;71.80;;;;;;5024594;28;20083;-81
2020/12/08 01:03:17;;;;;;;32.17;19.53;;;5.10;71.70;;;;;;5025361;28;20029;-81
2020/12/08 01:05:44;;;;;;;29.87;18.20;;;5.10;71.70;;;;;;5020490;28;20395;-81
2020/12/08 01:08:09;;;;;;;32.13;18.10;;;5.10;71.60;;;;;;5027607;28;20495;-81
2020/12/08 01:10:35;;;;;;;22.70;15.67;;;5.10;71.50;;;;;;5020293;28;20029;-81
2020/12/08 01:13:01;;;;;;;27.27;16.33;;;5.00;71.50;;;;;;5025421;28;20025;-81
2020/12/08 01:15:27;;;;;;;24.90;16.67;;;5.10;71.60;;;;;;5021182;28;20022;-81
2020/12/08 01:17:52;;;;;;;22.87;16.47;;;5.10;71.70;;;;;;5022986;28;20022;-81
2020/12/08 01:20:18;;;;;;;21.33;16.27;;;5.00;71.20;;;;;;5029816;28;20029;-81
2020/12/08 01:22:44;;;;;;;24.37;17.40;;;5.00;71.50;;;;;;5026314;28;20108;-81
2020/12/08 01:25:10;;;;;;;27.00;16.67;;;4.90;71.20;;;;;;5024374;28;20026;-81
2020/12/08 01:27:36;;;;;;;21.87;15.83;;;4.90;71.70;;;;;;5029730;28;20030;-81
2020/12/08 01:30:02;;;;;;;26.37;17.43;;;5.10;72.00;;;;;;5023518;28;20503;-81
2020/12/08 01:32:28;;;;;;;28.13;17.87;;;5.10;71.70;;;;;;5022268;28;20025;-81
2020/12/08 01:34:53;;;;;;;26.80;18.50;;;5.10;71.40;;;;;;5027702;28;20022;-81
2020/12/08 01:37:19;;;;;;;31.03;22.10;;;5.00;71.40;;;;;;5026872;28;20022;-81
2020/12/08 01:39:45;;;;;;;29.60;21.20;;;4.80;71.90;;;;;;5028072;28;20510;-81
2020/12/08 01:42:10;;;;;;;26.57;19.07;;;4.80;71.70;;;;;;5016509;28;20056;-81
2020/12/08 01:44:36;;;;;;;31.70;20.50;;;4.80;71.70;;;;;;5026881;28;20136;-81
2020/12/08 01:47:04;;;;;;;25.53;18.13;;;4.80;71.70;;;;;;5021969;28;20033;-81
2020/12/08 01:49:29;;;;;;;24.93;16.67;;;4.80;72.30;;;;;;5020847;28;20473;-81
2020/12/08 01:51:56;;;;;;;24.97;16.80;;;4.80;71.70;;;;;;5022446;28;20096;-81
2020/12/08 01:54:22;;;;;;;27.43;18.30;;;4.80;71.70;;;;;;5018871;28;20088;-81
2020/12/08 01:56:48;;;;;;;27.53;18.60;;;4.80;71.60;;;;;;5027012;28;20472;-81
2020/12/08 01:59:14;;;;;;;29.17;20.03;;;4.80;71.70;;;;;;5023886;28;20083;-81
2020/12/08 02:01:40;;;;;;;31.43;20.53;;;4.80;71.50;;;;;;5021237;28;20026;-81
2020/12/08 02:04:06;;;;;;;32.37;22.83;;;4.60;71.50;;;;;;5023318;28;20103;-81
2020/12/08 02:06:32;;;;;;;29.60;21.43;;;4.60;71.60;;;;;;5021919;28;20056;-81
2020/12/08 02:08:57;;;;;;;30.33;20.30;;;4.60;71.60;;;;;;5025586;28;20484;-81
2020/12/08 02:11:23;;;;;;;30.93;20.43;;;4.60;71.70;;;;;;5024295;28;20018;-81
2020/12/08 02:13:49;;;;;;;33.53;21.23;;;4.60;71.60;;;;;;5021442;28;20033;-81
2020/12/08 02:16:16;;;;;;;35.93;22.50;;;4.50;71.60;;;;;;5022688;28;20026;-81
2020/12/08 02:18:41;;;;;;;35.97;24.00;;;4.50;71.70;;;;;;5025602;28;20033;-81
2020/12/08 02:21:07;;;;;;;33.57;21.00;;;4.50;71.90;;;;;;5028243;28;20037;-81
2020/12/08 02:23:33;;;;;;;32.83;21.57;;;4.50;71.80;;;;;;5023469;28;20025;-80
2020/12/08 02:26:02;;;;;;;28.73;19.77;;;4.50;71.80;;;;;;5024979;28;20040;-81
2020/12/08 02:28:29;;;;;;;32.00;20.83;;;4.40;71.70;;;;;;5025842;28;20025;-80
2020/12/08 02:30:55;;;;;;;49.93;22.33;;;4.40;71.60;;;;;;5023884;28;20028;-81
2020/12/08 02:33:25;;;;;;;43.80;21.40;;;4.40;71.60;;;;;;5027610;28;20075;-81
2020/12/08 02:35:55;;;;;;;67.73;20.47;;;4.30;71.60;;;;;;5023885;28;20032;-80
2020/12/08 02:38:21;;;;;;;39.50;19.07;;;4.40;71.70;;;;;;5024087;28;20028;-81
2020/12/08 02:40:47;;;;;;;150.63;21.97;;;4.40;71.80;;;;;;5025318;28;20476;-81
2020/12/08 02:43:13;;;;;;;121.63;21.83;;;4.30;71.70;;;;;;5019784;28;20103;-81
2020/12/08 02:45:40;;;;;;;70.83;20.53;;;4.20;71.70;;;;;;5017992;28;20030;-80
2020/12/08 02:48:07;;;;;;;62.07;22.70;;;4.10;72.00;;;;;;5026995;28;20025;-80
2020/12/08 02:50:32;;;;;;;56.20;21.17;;;4.00;72.00;;;;;;5025649;28;20041;-81
2020/12/08 02:52:58;;;;;;;57.90;20.77;;;3.90;72.20;;;;;;5024610;28;20022;-80
2020/12/08 02:55:24;;;;;;;55.07;19.67;;;3.80;72.50;;;;;;5016385;28;20025;-81
2020/12/08 02:57:50;;;;;;;44.90;22.10;;;3.80;72.60;;;;;;5022224;28;20026;-81
2020/12/08 03:00:15;;;;;;;36.60;21.13;;;3.90;72.60;;;;;;5024688;28;20491;-81
2020/12/08 03:02:41;;;;;;;49.80;23.67;;;3.90;72.60;;;;;;5019051;28;20384;-81
2020/12/08 03:05:07;;;;;;;49.67;25.33;;;3.90;72.50;;;;;;5026538;28;20018;-81
2020/12/08 03:07:32;;;;;;;45.20;23.73;;;3.90;72.40;;;;;;5023828;28;20022;-80
2020/12/08 03:09:58;;;;;;;43.27;24.67;;;3.90;72.50;;;;;;5023276;28;20117;-81
2020/12/08 03:12:24;;;;;;;41.37;22.97;;;3.90;72.50;;;;;;5022064;28;20021;-81
2020/12/08 03:14:50;;;;;;;30.90;18.03;;;3.90;72.20;;;;;;5026337;28;20018;-80
2020/12/08 03:17:15;;;;;;;27.40;16.50;;;3.80;72.00;;;;;;5021958;28;20061;-81
2020/12/08 03:19:41;;;;;;;24.53;14.37;;;3.80;72.20;;;;;;5021466;28;20030;-81
2020/12/08 03:22:07;;;;;;;27.20;16.57;;;3.80;72.20;;;;;;5026608;28;20491;-80
2020/12/08 03:24:33;;;;;;;26.63;15.17;;;3.90;72.50;;;;;;5027829;28;20044;-81
2020/12/08 03:26:58;;;;;;;27.60;16.57;;;3.90;72.20;;;;;;5030404;28;20041;-81
2020/12/08 03:29:24;;;;;;;26.40;15.93;;;3.90;72.00;;;;;;5028803;28;20048;-81
2020/12/08 03:31:50;;;;;;;33.53;17.17;;;3.90;72.00;;;;;;5028485;28;20032;-80
2020/12/08 03:34:15;;;;;;;54.83;21.23;;;3.80;71.90;;;;;;5027091;28;20450;-81
2020/12/08 03:36:41;;;;;;;46.67;22.20;;;3.80;71.70;;;;;;5027929;28;20022;-81
2020/12/08 03:39:07;;;;;;;73.53;22.07;;;3.80;71.80;;;;;;5027101;28;20022;-81
2020/12/08 03:41:33;;;;;;;132.87;23.33;;;3.70;71.80;;;;;;5028024;28;20028;-81
2020/12/08 03:43:59;;;;;;;59.20;21.00;;;3.70;72.10;;;;;;5025752;28;20057;-81
2020/12/08 03:46:26;;;;;;;117.63;20.67;;;3.70;72.30;;;;;;5027451;28;20476;-81
2020/12/08 03:48:53;;;;;;;111.13;20.87;;;3.60;72.20;;;;;;5020349;28;20026;-81
2020/12/08 03:51:21;;;;;;;37.37;18.90;;;3.50;72.10;;;;;;5026757;28;20064;-81
2020/12/08 03:53:48;;;;;;;25.07;13.40;;;3.50;72.70;;;;;;5028193;28;20017;-81
2020/12/08 03:56:18;;;;;;;23.43;12.93;;;3.50;72.70;;;;;;5031066;28;20122;-81
2020/12/08 03:58:47;;;;;;;17.43;10.40;;;3.60;72.80;;;;;;5021520;28;20384;-81
2020/12/08 04:01:19;;;;;;;21.83;11.60;;;3.60;72.60;;;;;;5025400;28;20029;-80
2020/12/08 04:03:46;;;;;;;27.00;14.82;;;3.60;72.30;;;;;;5023367;28;20048;-81
2020/12/08 04:06:16;;;;;;;41.13;17.37;;;3.60;72.10;;;;;;5030370;28;20476;-81
2020/12/08 04:08:45;;;;;;;50.97;19.73;;;3.60;72.10;;;;;;5025677;28;20040;-81
2020/12/08 04:11:13;;;;;;;66.10;19.07;;;3.50;72.10;;;;;;5027631;28;20065;-81
2020/12/08 04:13:39;;;;;;;89.00;18.70;;;3.50;72.20;;;;;;5024878;28;20104;-81
2020/12/08 04:16:04;;;;;;;171.37;22.07;;;3.50;72.50;;;;;;5024549;28;20026;-81
2020/12/08 04:18:30;;;;;;;27.53;14.47;;;3.40;72.40;;;;;;5026545;28;20052;-81
2020/12/08 04:20:56;;;;;;;25.40;14.13;;;3.30;72.40;;;;;;5029319;28;20042;-81
2020/12/08 04:23:23;;;;;;;22.63;12.63;;;3.30;72.80;;;;;;5023660;28;20931;-81
2020/12/08 04:25:50;;;;;;;19.37;11.00;;;3.30;72.90;;;;;;5027429;28;20022;-81
2020/12/08 04:28:16;;;;;;;19.63;10.73;;;3.30;73.20;;;;;;5031505;28;20423;-81
2020/12/08 04:30:42;;;;;;;21.00;11.33;;;3.40;72.90;;;;;;5030641;28;20021;-81
2020/12/08 04:33:08;;;;;;;15.67;8.40;;;3.40;72.50;;;;;;5024627;28;20028;-81
2020/12/08 04:35:34;;;;;;;16.00;9.50;;;3.50;72.50;;;;;;5021172;28;20109;-81
2020/12/08 04:38:00;;;;;;;12.73;6.50;;;3.50;72.50;;;;;;5025620;28;20437;-81
2020/12/08 04:40:26;;;;;;;8.13;4.97;;;3.60;72.60;;;;;;5023925;28;20030;-81
2020/12/08 04:42:57;;;;;;;11.73;6.60;;;3.60;72.60;;;;;;5030744;28;20055;-81
2020/12/08 04:45:23;;;;;;;15.10;5.20;;;3.60;72.50;;;;;;5024877;28;20472;-81
2020/12/08 04:47:50;;;;;;;8.50;4.60;;;3.60;72.50;;;;;;5025224;28;20043;-81
2020/12/08 04:50:18;;;;;;;6.90;4.20;;;3.70;72.60;;;;;;5011164;28;20116;-81
2020/12/08 04:52:44;;;;;;;6.00;3.33;;;3.70;72.30;;;;;;5041263;28;20037;-81
2020/12/08 04:55:11;;;;;;;5.63;3.17;;;3.70;72.10;;;;;;5022428;28;20431;-81
2020/12/08 04:57:40;;;;;;;4.20;2.43;;;3.80;72.30;;;;;;5028364;28;20104;-80
2020/12/08 05:00:08;;;;;;;5.10;2.87;;;3.80;72.20;;;;;;5021082;28;20389;-81
2020/12/08 05:02:51;;;;;;;3.67;1.93;;;3.80;72.30;;;;;;5022241;28;20033;-81
2020/12/08 05:05:18;;;;;;;4.73;2.43;;;3.90;72.10;;;;;;5021786;28;20037;-81
2020/12/08 05:07:45;;;;;;;8.30;4.00;;;3.90;72.20;;;;;;5025264;28;20033;-81
2020/12/08 05:10:14;;;;;;;7.73;4.70;;;3.90;72.10;;;;;;5027284;28;20057;-81
2020/12/08 05:12:40;;;;;;;7.17;3.93;;;3.90;72.20;;;;;;5023719;28;20037;-81
2020/12/08 05:15:15;;;;;;;8.63;4.77;;;3.90;72.00;;;;;;5028990;28;20025;-80
2020/12/08 05:17:42;;;;;;;7.57;3.50;;;3.90;72.30;;;;;;5039620;28;20086;-81
2020/12/08 05:20:10;;;;;;;4.17;2.20;;;3.90;72.20;;;;;;5026651;28;20484;-81
2020/12/08 05:22:37;;;;;;;5.40;3.00;;;3.90;72.20;;;;;;5024505;28;20055;-81
2020/12/08 05:25:21;;;;;;;22.60;13.63;;;4.00;72.30;;;;;;5025287;28;20052;-81
2020/12/08 05:27:51;;;;;;;24.47;13.53;;;4.00;72.20;;;;;;5026618;28;20052;-81
2020/12/08 05:30:17;;;;;;;12.13;6.67;;;4.00;72.20;;;;;;5022155;28;20041;-81
2020/12/08 05:32:43;;;;;;;10.43;6.63;;;3.90;72.30;;;;;;5026938;28;20021;-81
2020/12/08 05:35:11;;;;;;;11.17;7.73;;;3.90;72.20;;;;;;5022711;28;20034;-81
2020/12/08 05:37:45;;;;;;;9.73;6.03;;;3.90;72.50;;;;;;5017813;28;20050;-81
2020/12/08 05:40:19;;;;;;;10.53;4.97;;;3.90;72.50;;;;;;5025722;28;20794;-81
2020/12/08 05:42:47;;;;;;;7.70;4.60;;;3.90;72.70;;;;;;5021156;28;20121;-81
2020/12/08 05:45:15;;;;;;;6.10;3.63;;;3.90;72.60;;;;;;5022001;28;20030;-80
2020/12/08 05:47:54;;;;;;;9.53;4.27;;;4.00;72.70;;;;;;5025771;28;20026;-81
2020/12/08 05:50:22;;;;;;;10.47;6.37;;;4.00;72.50;;;;;;5021762;28;20033;-81
2020/12/08 05:52:52;;;;;;;11.63;8.07;;;4.00;72.50;;;;;;5023020;28;20048;-81
2020/12/08 05:55:21;;;;;;;11.23;7.63;;;3.80;72.40;;;;;;5040300;28;20022;-82
2020/12/08 05:57:47;;;;;;;10.37;7.30;;;3.80;72.60;;;;;;5024122;28;20040;-82
2020/12/08 06:00:28;;;;;;;11.97;6.67;;;3.70;72.70;;;;;;5021457;28;20029;-81
2020/12/08 06:03:07;;;;;;;8.17;5.67;;;3.70;72.80;;;;;;5018080;28;20040;-81
2020/12/08 06:05:33;;;;;;;6.60;3.93;;;3.70;72.90;;;;;;5023788;28;20029;-82
2020/12/08 06:07:59;;;;;;;6.27;4.30;;;3.80;72.90;;;;;;5028111;28;20037;-81
2020/12/08 06:10:26;;;;;;;7.13;4.13;;;3.90;72.80;;;;;;5021824;28;20034;-81
2020/12/08 06:13:00;;;;;;;8.43;5.37;;;3.90;72.80;;;;;;5020771;28;20037;-81
2020/12/08 06:15:36;;;;;;;7.87;4.80;;;4.00;72.80;;;;;;5030672;28;20025;-80
2020/12/08 06:18:02;;;;;;;8.70;5.87;;;4.00;72.70;;;;;;5022010;28;20731;-81
2020/12/08 06:20:27;;;;;;;11.70;6.80;;;4.00;72.80;;;;;;5022778;28;20034;-80
2020/12/08 06:22:57;;;;;;;10.83;7.00;;;4.00;72.60;;;;;;5024128;28;20589;-81
2020/12/08 06:25:24;;;;;;;8.13;6.13;;;3.90;72.40;;;;;;5023494;28;20028;-81
2020/12/08 06:27:50;;;;;;;8.27;5.60;;;3.90;72.50;;;;;;5023096;28;20063;-80
2020/12/08 06:30:21;;;;;;;8.40;5.77;;;3.90;72.50;;;;;;5024689;28;20437;-81
2020/12/08 06:32:48;;;;;;;7.77;5.67;;;3.80;72.50;;;;;;5024692;28;20072;-80
2020/12/08 06:35:15;;;;;;;10.63;6.37;;;3.80;72.70;;;;;;5021474;28;20061;-80
2020/12/08 06:37:52;;;;;;;9.50;6.03;;;3.80;72.70;;;;;;5028482;28;20033;-81
2020/12/08 06:40:20;;;;;;;9.93;6.13;;;3.80;72.70;;;;;;5041927;28;20029;-80
2020/12/08 06:42:47;;;;;;;11.77;7.57;;;3.80;72.50;;;;;;5024147;28;20057;-80
2020/12/08 06:45:18;;;;;;;17.87;9.80;;;3.80;72.50;;;;;;5027733;28;20112;-81
2020/12/08 06:47:46;;;;;;;18.67;11.33;;;3.80;73.00;;;;;;5022831;28;20025;-80
2020/12/08 06:50:21;;;;;;;18.33;10.60;;;3.80;72.40;;;;;;5023632;28;20049;-80
2020/12/08 06:53:01;;;;;;;13.60;6.87;;;3.80;72.40;;;;;;5022143;28;20118;-81
2020/12/08 06:55:28;;;;;;;13.60;8.67;;;3.80;72.40;;;;;;5021997;28;20021;-81
2020/12/08 06:58:08;;;;;;;12.90;8.10;;;3.90;72.50;;;;;;5022789;28;20017;-81
2020/12/08 07:00:34;;;;;;;11.90;6.33;;;3.80;72.50;;;;;;5029544;28;20033;-81
2020/12/08 07:03:00;;;;;;;15.27;7.77;;;3.80;72.50;;;;;;5043405;28;20038;-81
2020/12/08 07:05:29;;;;;;;15.40;10.50;;;3.90;72.50;;;;;;5040435;28;20183;-82
2020/12/08 07:07:59;;;;;;;11.93;8.57;;;3.90;72.50;;;;;;5034281;28;20491;-81
2020/12/08 07:10:25;;;;;;;15.40;9.17;;;3.90;72.40;;;;;;5027854;28;20033;-81
2020/12/08 07:12:55;;;;;;;14.60;9.63;;;3.90;72.20;;;;;;5022339;28;20030;-81
2020/12/08 07:15:25;;;;;;;16.93;9.37;;;3.90;72.20;;;;;;5025067;28;20114;-81
2020/12/08 07:17:58;;;;;;;14.43;8.83;;;3.90;72.50;;;;;;5025930;28;20423;-81
2020/12/08 07:20:25;;;;;;;11.43;8.00;;;3.90;72.50;;;;;;5023887;28;20041;-81
2020/12/08 07:22:52;;;;;;;14.83;7.67;;;4.00;72.30;;;;;;5035569;28;20037;-81
2020/12/08 07:25:19;;;;;;;10.30;7.17;;;4.00;72.20;;;;;;5023679;28;20111;-81
2020/12/08 07:27:48;;;;;;;12.43;7.67;;;4.00;72.30;;;;;;5023478;28;20041;-81
2020/12/08 07:30:16;;;;;;;11.13;7.97;;;4.00;72.30;;;;;;5038648;28;20045;-79
2020/12/08 07:32:42;;;;;;;13.13;7.87;;;4.10;72.30;;;;;;5023119;28;23156;-79
2020/12/08 07:35:28;;;;;;;14.00;8.13;;;4.10;72.10;;;;;;5022513;28;20037;-79
2020/12/08 07:37:59;;;;;;;22.73;12.70;;;4.10;72.00;;;;;;5040383;28;20031;-79
2020/12/08 07:40:36;;;;;;;26.30;14.97;;;4.10;72.20;;;;;;5023859;28;20033;-79
2020/12/08 07:43:03;;;;;;;27.30;15.13;;;4.10;72.20;;;;;;5035699;28;20588;-79
2020/12/08 07:45:31;;;;;;;27.93;15.40;;;4.00;72.10;;;;;;5022714;28;20033;-79
2020/12/08 07:47:59;;;;;;;27.00;14.70;;;4.10;72.30;;;;;;5025292;28;20025;-78
2020/12/08 07:50:28;;;;;;;24.27;13.40;;;4.10;72.20;;;;;;5022459;28;20083;-79
2020/12/08 07:53:13;;;;;;;21.17;11.27;;;4.10;72.30;;;;;;5024448;28;20026;-79
2020/12/08 07:55:45;;;;;;;22.40;12.50;;;4.10;72.40;;;;;;5026265;28;20018;-81
2020/12/08 07:58:12;;;;;;;22.08;12.70;;;4.10;72.40;;;;;;5029359;28;20032;-81
2020/12/08 08:00:38;;;;;;;24.90;15.67;;;4.10;72.50;;;;;;5028190;28;20049;-81
2020/12/08 08:03:04;;;;;;;22.60;13.50;;;4.20;72.50;;;;;;5031082;28;20037;-81
2020/12/08 08:05:31;;;;;;;13.03;8.60;;;4.20;72.30;;;;;;5027002;28;20045;-81
2020/12/08 08:07:57;;;;;;;13.93;8.47;;;4.20;72.30;;;;;;5042784;28;20037;-81
2020/12/08 08:10:23;;;;;;;12.27;7.67;;;4.20;72.20;;;;;;5028573;28;20088;-81
2020/12/08 08:12:49;;;;;;;10.90;7.47;;;4.20;72.30;;;;;;5026742;28;20488;-79
2020/12/08 08:15:14;;;;;;;13.00;8.20;;;4.20;72.30;;;;;;5032867;28;20052;-79
2020/12/08 08:17:40;;;;;;;16.87;11.17;;;4.30;72.50;;;;;;5031484;28;20416;-82
2020/12/08 08:20:06;;;;;;;19.10;11.43;;;4.40;72.30;;;;;;5026904;28;20039;-79
2020/12/08 08:22:32;;;;;;;19.63;10.73;;;4.40;72.80;;;;;;5025905;28;20032;-79
2020/12/08 08:24:58;;;;;;;11.13;7.47;;;4.40;72.10;;;;;;5032146;28;20064;-79
2020/12/08 08:27:24;;;;;;;14.03;8.47;;;4.40;72.00;;;;;;5032764;28;20033;-79
2020/12/08 08:29:50;;;;;;;12.43;8.20;;;4.40;72.00;;;;;;5031030;28;20057;-79
2020/12/08 08:32:15;;;;;;;14.43;9.47;;;4.50;72.00;;;;;;5028877;28;20018;-81
2020/12/08 08:34:41;;;;;;;21.47;12.40;;;4.40;72.00;;;;;;5030024;28;20017;-80
2020/12/08 08:37:07;;;;;;;19.77;12.30;;;4.40;72.00;;;;;;5024145;28;20079;-79
2020/12/08 08:39:33;;;;;;;16.10;10.27;;;4.50;72.20;;;;;;5028163;28;20123;-79
2020/12/08 08:41:58;;;;;;;17.57;9.93;;;4.50;72.10;;;;;;5029844;28;20080;-78
2020/12/08 08:44:24;;;;;;;20.90;12.20;;;4.40;72.20;;;;;;5029982;28;20067;-79
2020/12/08 08:46:50;;;;;;;31.07;19.10;;;4.50;72.20;;;;;;5031858;28;20029;-80
2020/12/08 08:49:15;;;;;;;14.03;9.33;;;4.50;72.20;;;;;;5028546;28;20072;-80
2020/12/08 08:51:43;;;;;;;29.73;15.53;;;4.50;72.10;;;;;;5024599;28;20104;-79
2020/12/08 08:54:09;;;;;;;35.87;17.43;;;4.50;72.00;;;;;;5020120;28;20048;-80
2020/12/08 08:56:36;;;;;;;37.53;19.67;;;4.60;72.40;;;;;;5026622;28;20159;-80
2020/12/08 08:59:01;;;;;;;33.97;19.73;;;4.60;72.40;;;;;;5028729;28;20037;-80
2020/12/08 09:01:27;;;;;;;31.07;17.13;;;4.60;72.70;;;;;;5029861;28;20025;-80
2020/12/08 09:03:53;;;;;;;30.80;16.47;;;4.70;72.60;;;;;;5024554;28;20116;-80
2020/12/08 09:06:18;;;;;;;23.20;14.17;;;4.80;72.70;;;;;;5029549;28;20041;-80
2020/12/08 09:08:44;;;;;;;23.10;14.63;;;4.90;72.60;;;;;;5029712;28;20033;-80
2020/12/08 09:11:10;;;;;;;20.43;14.10;;;5.00;72.30;;;;;;5033069;28;20025;-80
2020/12/08 09:13:36;;;;;;;25.97;17.13;;;5.10;71.90;;;;;;5020183;28;20036;-80
2020/12/08 09:16:02;;;;;;;11.57;7.67;;;5.30;71.70;;;;;;5025947;28;20064;-80
2020/12/08 09:18:28;;;;;;;15.23;8.80;;;5.30;71.40;;;;;;5019780;28;20030;-80
2020/12/08 09:20:54;;;;;;;19.03;10.27;;;5.40;71.50;;;;;;5031842;28;20043;-80
2020/12/08 09:23:22;;;;;;;10.30;6.83;;;5.60;71.10;;;;;;5023190;28;20033;-80
2020/12/08 09:25:52;;;;;;;12.03;6.60;;;5.80;70.80;;;;;;5020727;28;20018;-80
2020/12/08 09:28:18;;;;;;;16.73;9.00;;;6.00;70.10;;;;;;5014170;28;20026;-80
2020/12/08 09:30:44;;;;;;;13.90;7.60;;;6.10;69.90;;;;;;5018734;28;20112;-80
2020/12/08 09:33:10;;;;;;;12.17;6.17;;;6.40;69.80;;;;;;5026499;28;20362;-80
2020/12/08 09:35:35;;;;;;;7.80;4.67;;;6.50;69.20;;;;;;5033641;28;20028;-80
2020/12/08 09:38:01;;;;;;;7.23;4.97;;;6.40;68.60;;;;;;5030141;28;20025;-80
2020/12/08 09:40:27;;;;;;;6.60;5.10;;;6.20;68.60;;;;;;5026601;28;20018;-80
2020/12/08 09:42:53;;;;;;;10.27;5.93;;;5.90;68.80;;;;;;5029663;28;20069;-80
2020/12/08 09:45:18;;;;;;;10.40;6.10;;;5.80;69.10;;;;;;5023687;28;20026;-80
2020/12/08 09:47:44;;;;;;;8.87;6.07;;;5.90;69.60;;;;;;5013865;28;20108;-80
2020/12/08 09:50:11;;;;;;;7.00;4.93;;;6.00;69.30;;;;;;5022489;28;20021;-80
2020/12/08 09:52:37;;;;;;;8.60;5.63;;;6.20;69.30;;;;;;5019827;28;20022;-80
2020/12/08 09:55:04;;;;;;;9.60;5.97;;;6.40;69.20;;;;;;5022413;28;20026;-80
2020/12/08 09:57:30;;;;;;;9.57;6.00;;;6.70;68.90;;;;;;5017740;28;20377;-80
2020/12/08 09:59:56;;;;;;;12.53;6.13;;;6.90;68.60;;;;;;5020256;28;20091;-81
2020/12/08 10:02:23;;;;;;;8.77;5.80;;;7.10;68.10;;;;;;5029709;28;20116;-81
2020/12/08 10:04:50;;;;;;;8.90;5.57;;;7.30;67.90;;;;;;5030468;28;20104;-80
2020/12/08 10:07:18;;;;;;;9.30;6.00;;;7.40;67.90;;;;;;5031115;28;20025;-82
2020/12/08 10:09:48;;;;;;;10.87;6.27;;;7.60;67.30;;;;;;5029411;28;20057;-82
2020/12/08 10:12:15;;;;;;;12.73;8.23;;;7.50;67.00;;;;;;5036341;28;20025;-81
2020/12/08 10:14:41;;;;;;;9.03;5.57;;;7.50;66.90;;;;;;5037633;28;20036;-81
2020/12/08 10:17:07;;;;;;;8.50;4.73;;;7.50;66.70;;;;;;5040882;28;20026;-81
2020/12/08 10:19:33;;;;;;;8.37;5.10;;;7.70;66.50;;;;;;5031500;28;20067;-80
2020/12/08 10:21:59;;;;;;;7.93;5.10;;;7.90;66.20;;;;;;5025173;28;20385;-81
2020/12/08 10:24:25;;;;;;;6.67;4.67;;;8.00;65.30;;;;;;5026379;28;20615;-81
2020/12/08 10:26:51;;;;;;;7.43;5.10;;;8.10;65.30;;;;;;5029718;28;20094;-81
2020/12/08 10:29:19;;;;;;;10.10;5.67;;;8.30;64.90;;;;;;5021689;28;20029;-81
2020/12/08 10:31:45;;;;;;;10.20;4.93;;;8.40;64.80;;;;;;5029784;28;20034;-81
2020/12/08 10:34:11;;;;;;;10.07;5.30;;;8.60;64.30;;;;;;5023383;28;20540;-81
2020/12/08 10:36:37;;;;;;;8.77;4.83;;;8.50;63.90;;;;;;5027896;28;20113;-81
2020/12/08 10:39:04;;;;;;;10.37;5.63;;;8.60;63.80;;;;;;5027326;28;20136;-81
2020/12/08 10:41:31;;;;;;;12.87;6.93;;;8.70;63.60;;;;;;5029408;28;20105;-81
2020/12/08 10:43:56;;;;;;;11.00;5.97;;;8.90;63.40;;;;;;5021801;28;20041;-81
2020/12/08 10:46:23;;;;;;;7.57;4.27;;;8.80;63.00;;;;;;5020796;28;20036;-81
2020/12/08 10:48:50;;;;;;;19.73;9.50;;;8.90;63.20;;;;;;5019490;28;20040;-81
2020/12/08 10:51:23;;;;;;;22.77;11.07;;;9.00;63.00;;;;;;5025798;28;20025;-81
2020/12/08 10:53:49;;;;;;;13.13;6.63;;;9.20;62.50;;;;;;5013684;28;20030;-81
2020/12/08 10:56:20;;;;;;;8.67;5.13;;;9.40;62.70;;;;;;5021798;28;20042;-81
2020/12/08 10:58:46;;;;;;;11.40;6.90;;;9.50;62.20;;;;;;5022063;28;20049;-81
2020/12/08 11:01:26;;;;;;;20.00;10.37;;;9.60;61.80;;;;;;5021727;28;20074;-81
2020/12/08 11:03:54;;;;;;;16.37;10.10;;;9.70;61.90;;;;;;5045306;28;20037;-81
2020/12/08 11:06:28;;;;;;;13.70;7.30;;;9.50;61.40;;;;;;5043163;28;20038;-81
2020/12/08 11:08:55;;;;;;;9.73;6.00;;;9.20;61.40;;;;;;5025928;28;20075;-81
2020/12/08 11:11:26;;;;;;;12.37;6.33;;;9.00;61.90;;;;;;5027206;28;20076;-81
2020/12/08 11:13:52;;;;;;;8.57;4.90;;;8.80;62.40;;;;;;5027837;28;20025;-81
2020/12/08 11:16:19;;;;;;;11.30;6.17;;;8.70;62.30;;;;;;5024509;28;20127;-81
2020/12/08 11:18:45;;;;;;;9.20;4.97;;;8.60;63.00;;;;;;5018269;28;20026;-81
2020/12/08 11:21:11;;;;;;;12.03;6.47;;;8.60;62.60;;;;;;5022183;28;20033;-81
2020/12/08 11:23:39;;;;;;;12.70;6.80;;;8.40;62.70;;;;;;5024658;28;20381;-81
2020/12/08 11:26:08;;;;;;;10.57;6.90;;;8.30;62.80;;;;;;5030062;28;20021;-81
2020/12/08 11:28:33;;;;;;;11.67;6.43;;;8.20;62.90;;;;;;5019221;28;20029;-81
2020/12/08 11:30:59;;;;;;;13.23;7.53;;;8.20;62.90;;;;;;5028645;28;20064;-81
2020/12/08 11:33:26;;;;;;;11.57;6.00;;;8.10;63.00;;;;;;5024126;28;20033;-80
2020/12/08 11:35:52;;;;;;;7.30;4.37;;;8.00;62.90;;;;;;5017269;28;20037;-82
2020/12/08 11:38:18;;;;;;;8.47;4.87;;;7.90;63.00;;;;;;5022311;28;20034;-80
2020/12/08 11:40:44;;;;;;;13.87;8.23;;;8.00;63.30;;;;;;5021294;28;20042;-80
2020/12/08 11:43:10;;;;;;;7.87;4.23;;;8.00;63.20;;;;;;5024271;28;20069;-79
2020/12/08 11:45:35;;;;;;;8.97;5.70;;;8.10;63.20;;;;;;5022769;28;20030;-81
2020/12/08 11:48:01;;;;;;;11.60;6.67;;;8.10;63.30;;;;;;5023911;28;20029;-82
2020/12/08 11:50:27;;;;;;;5.70;3.93;;;8.10;63.40;;;;;;5047125;28;20037;-82
2020/12/08 11:52:52;;;;;;;5.33;4.03;;;8.00;63.10;;;;;;5023956;28;20022;-82
2020/12/08 11:55:18;;;;;;;6.60;4.67;;;7.90;63.40;;;;;;5026767;28;20036;-82
2020/12/08 11:57:44;;;;;;;5.77;4.40;;;7.90;63.50;;;;;;5022156;28;20490;-82
2020/12/08 12:00:09;;;;;;;6.23;3.70;;;7.70;64.10;;;;;;5018844;28;20076;-82
2020/12/08 12:02:35;;;;;;;7.90;4.83;;;7.80;63.60;;;;;;5021171;28;20061;-82
2020/12/08 12:05:01;;;;;;;7.70;4.23;;;7.90;63.50;;;;;;5021878;28;20034;-82
2020/12/08 12:07:27;;;;;;;7.03;3.97;;;8.10;63.30;;;;;;5025627;28;20036;-82
2020/12/08 12:09:53;;;;;;;6.10;4.60;;;8.20;63.40;;;;;;5029055;28;20358;-82
2020/12/08 12:12:18;;;;;;;7.07;4.57;;;8.20;62.60;;;;;;5024167;28;20523;-82
2020/12/08 12:14:44;;;;;;;6.63;3.93;;;8.20;62.60;;;;;;5032109;28;20108;-82
2020/12/08 12:17:10;;;;;;;7.70;3.97;;;8.20;62.70;;;;;;5030932;28;20083;-82
2020/12/08 12:19:35;;;;;;;5.20;3.53;;;8.30;63.20;;;;;;5030950;28;20026;-82
2020/12/08 12:22:01;;;;;;;5.20;4.03;;;8.30;62.30;;;;;;5025015;28;20034;-82
2020/12/08 12:24:27;;;;;;;6.67;4.23;;;8.20;62.50;;;;;;5021885;28;20373;-82
2020/12/08 12:26:53;;;;;;;6.83;4.47;;;8.20;62.60;;;;;;5023201;28;20025;-82
2020/12/08 12:29:19;;;;;;;5.93;3.73;;;8.10;62.30;;;;;;5016897;28;20057;-82
2020/12/08 12:31:45;;;;;;;6.23;4.10;;;8.00;62.40;;;;;;5015089;28;20030;-82
2020/12/08 12:34:12;;;;;;;7.03;3.97;;;7.90;62.40;;;;;;5018575;28;20039;-81
2020/12/08 12:36:37;;;;;;;6.47;4.30;;;7.90;62.60;;;;;;5026016;28;20025;-82
2020/12/08 12:39:04;;;;;;;6.90;4.13;;;7.90;62.80;;;;;;5018373;28;20534;-82
2020/12/08 12:41:31;;;;;;;6.03;4.27;;;7.90;62.60;;;;;;5032497;28;20053;-82
2020/12/08 12:43:57;;;;;;;6.50;4.20;;;7.80;62.70;;;;;;5032762;28;20034;-82
2020/12/08 12:46:24;;;;;;;6.80;4.13;;;7.70;62.90;;;;;;5030194;28;20060;-82